createdAt,value
2022-08-16T00:03:46.816Z,6.75
2022-08-16T00:08:50.453Z,6.53
2022-08-16T00:13:56.163Z,6.72
2022-08-16T00:19:01.256Z,7.55
2022-08-16T00:24:06.388Z,6.75
2022-08-16T00:29:18.162Z,6.53
2022-08-16T00:34:44.273Z,7.13
2022-08-16T00:39:58.093Z,6.63
2022-08-16T00:45:09.697Z,7.25
2022-08-16T00:50:17.134Z,8.13
2022-08-16T00:55:23.717Z,7.40
2022-08-16T01:00:29.264Z,7.35
2022-08-16T01:05:34.809Z,7.20
2022-08-16T01:10:38.511Z,6.70
2022-08-16T01:15:52.673Z,6.80
2022-08-16T01:21:06.049Z,6.88
2022-08-16T01:26:34.907Z,7.50
2022-08-16T01:31:35.222Z,7.95
2022-08-16T01:36:47.293Z,8.13
2022-08-16T01:42:07.720Z,7.40
2022-08-16T01:47:16.431Z,7.93
2022-08-16T01:52:28.306Z,8.73
2022-08-16T01:57:53.879Z,9.48
2022-08-16T02:03:01.141Z,9.73
2022-08-16T02:08:06.499Z,9.25
2022-08-16T02:13:13.358Z,9.43
2022-08-16T02:18:18.590Z,10.00
2022-08-16T02:23:22.516Z,10.18
2022-08-16T02:28:27.458Z,9.30
2022-08-16T02:33:43.843Z,8.60
2022-08-16T02:39:04.934Z,8.98
2022-08-16T02:44:13.746Z,8.55
2022-08-16T02:49:21.892Z,7.03
2022-08-16T02:54:36.828Z,8.30
2022-08-16T02:59:43.514Z,8.40
2022-08-16T03:04:51.146Z,8.40
2022-08-16T03:10:00.213Z,9.52
2022-08-16T03:15:10.349Z,8.07
2022-08-16T03:20:18.508Z,7.95
2022-08-16T03:25:22.914Z,8.88
2022-08-16T03:30:36.055Z,8.40
2022-08-16T03:35:44.001Z,8.45
2022-08-16T03:40:59.857Z,10.35
2022-08-16T03:46:07.238Z,11.27
2022-08-16T03:51:14.995Z,10.00
2022-08-16T03:56:27.237Z,10.65
2022-08-16T04:01:36.535Z,10.07
2022-08-16T04:06:40.821Z,9.30
2022-08-16T04:11:44.365Z,10.95
2022-08-16T04:16:52.897Z,12.65
2022-08-16T04:22:17.339Z,12.15
2022-08-16T04:27:31.539Z,11.75
2022-08-16T04:32:37.970Z,11.37
2022-08-16T04:37:45.453Z,11.40
2022-08-16T04:42:56.966Z,10.13
2022-08-16T04:48:05.588Z,11.00
2022-08-16T04:53:19.232Z,10.88
2022-08-16T04:58:44.562Z,10.93
2022-08-16T05:03:59.816Z,10.55
2022-08-16T05:09:08.000Z,11.05
2022-08-16T05:14:11.617Z,11.48
2022-08-16T05:19:26.061Z,11.25
2022-08-16T05:24:50.317Z,10.73
2022-08-16T05:30:02.006Z,10.65
2022-08-16T05:35:24.552Z,11.77
2022-08-16T05:40:59.724Z,12.07
2022-08-16T05:46:28.593Z,11.48
2022-08-16T05:51:38.245Z,11.13
2022-08-16T05:56:46.042Z,10.82
2022-08-16T06:01:54.605Z,10.40
2022-08-16T06:07:09.153Z,10.63
2022-08-16T06:12:33.984Z,10.48
2022-08-16T06:17:43.739Z,9.48
2022-08-16T06:22:58.929Z,10.05
2022-08-16T06:28:16.833Z,9.80
2022-08-16T06:33:22.594Z,9.68
2022-08-16T06:38:34.077Z,9.73
2022-08-16T06:43:47.695Z,9.63
2022-08-16T06:48:59.233Z,10.07
2022-08-16T06:54:04.878Z,10.23
2022-08-16T06:59:09.097Z,9.50
2022-08-16T07:04:33.022Z,9.65
2022-08-16T07:09:51.493Z,10.27
2022-08-16T07:15:00.751Z,9.13
2022-08-16T07:20:34.879Z,9.30
2022-08-16T07:25:40.366Z,8.40
2022-08-16T07:30:47.452Z,7.80
2022-08-16T07:36:04.988Z,8.73
2022-08-16T07:41:15.069Z,8.38
2022-08-16T07:46:39.459Z,9.13
2022-08-16T07:51:57.999Z,8.73
2022-08-16T07:57:11.312Z,8.90
2022-08-16T08:02:19.996Z,8.50
2022-08-16T08:07:27.658Z,9.30
2022-08-16T08:12:36.067Z,9.85
2022-08-16T08:17:44.092Z,9.02
2022-08-16T08:23:01.169Z,9.73
2022-08-16T08:28:13.837Z,8.20
2022-08-16T08:33:22.933Z,9.20
2022-08-16T08:38:44.205Z,8.82
2022-08-16T08:43:53.554Z,8.60
2022-08-16T08:48:59.267Z,9.02
2022-08-16T08:54:06.886Z,8.68
2022-08-16T08:59:20.001Z,6.63
2022-08-16T09:04:25.905Z,7.85
2022-08-16T09:09:33.404Z,7.38
2022-08-16T09:14:51.143Z,7.20
2022-08-16T09:20:04.658Z,6.95
2022-08-16T09:25:12.981Z,7.22
2022-08-16T09:30:34.378Z,7.60
2022-08-16T09:35:44.238Z,6.70
2022-08-16T09:40:48.615Z,6.70
2022-08-16T09:45:54.494Z,6.25
2022-08-16T09:50:58.761Z,6.10
2022-08-16T09:56:04.784Z,7.03
2022-08-16T10:01:16.598Z,7.65
2022-08-16T10:06:21.686Z,6.47
2022-08-16T10:11:50.377Z,6.07
2022-08-16T10:17:02.868Z,5.18
2022-08-16T10:22:06.740Z,5.80
2022-08-16T10:27:26.090Z,5.80
2022-08-16T10:32:35.626Z,5.18
2022-08-16T10:37:42.995Z,4.40
2022-08-16T10:42:47.034Z,4.75
2022-08-16T10:48:02.927Z,4.68
2022-08-16T10:53:07.852Z,7.88
2022-08-16T10:58:13.770Z,12.80
2022-08-16T11:03:42.839Z,4.72
2022-08-16T11:08:46.488Z,6.15
2022-08-16T11:14:05.836Z,5.07
2022-08-16T11:19:12.594Z,4.53
2022-08-16T11:24:39.929Z,4.93
2022-08-16T11:29:40.695Z,4.95
2022-08-16T11:35:10.242Z,4.90
2022-08-16T11:40:10.801Z,4.55
2022-08-16T11:45:16.009Z,4.20
2022-08-16T11:50:21.372Z,5.10
2022-08-16T11:55:24.855Z,5.07
2022-08-16T12:00:33.819Z,5.10
2022-08-16T12:05:55.446Z,5.13
2022-08-16T12:11:02.507Z,4.63
2022-08-16T12:16:09.229Z,5.10
2022-08-16T12:21:14.517Z,5.07
2022-08-16T12:26:18.184Z,4.43
2022-08-16T12:31:22.232Z,5.10
2022-08-16T12:36:30.428Z,5.00
2022-08-16T12:41:34.957Z,4.78
2022-08-16T12:46:38.767Z,4.85
2022-08-16T12:51:57.951Z,5.40
2022-08-16T12:57:03.455Z,5.05
2022-08-16T13:02:07.472Z,4.68
2022-08-16T13:07:17.899Z,4.60
2022-08-16T13:12:30.471Z,4.90
2022-08-16T13:17:34.079Z,4.47
2022-08-16T13:22:42.147Z,5.07
2022-08-16T13:28:01.652Z,4.70
2022-08-16T13:33:12.527Z,4.53
2022-08-16T13:38:24.495Z,4.50
2022-08-16T13:43:32.622Z,4.93
2022-08-16T13:48:44.203Z,5.18
2022-08-16T13:53:59.339Z,4.97
2022-08-16T13:59:19.668Z,4.68
2022-08-16T14:04:26.372Z,5.18
2022-08-16T14:09:36.356Z,4.90
2022-08-16T14:14:40.455Z,5.32
2022-08-16T14:19:46.330Z,5.35
2022-08-16T14:24:52.578Z,5.28
2022-08-16T14:29:58.080Z,5.63
2022-08-16T14:35:03.171Z,7.93
2022-08-16T14:40:12.244Z,8.95
2022-08-16T14:45:19.272Z,8.07
2022-08-16T14:50:25.842Z,7.38
2022-08-16T14:55:33.292Z,6.75
2022-08-16T15:00:39.959Z,6.85
2022-08-16T15:05:44.079Z,7.28
2022-08-16T15:10:49.854Z,6.45
2022-08-16T15:15:58.895Z,6.32
2022-08-16T15:21:08.439Z,6.40
2022-08-16T15:26:29.640Z,6.25
2022-08-16T15:31:37.646Z,5.97
2022-08-16T15:36:41.269Z,5.97
2022-08-16T15:42:27.520Z,6.50
2022-08-16T15:47:34.078Z,5.88
2022-08-16T15:52:38.898Z,6.40
2022-08-16T15:57:43.809Z,7.15
2022-08-16T16:02:49.808Z,6.72
2022-08-16T16:07:55.600Z,7.28
2022-08-16T16:13:04.678Z,7.28
2022-08-16T16:18:09.825Z,7.22
2022-08-16T16:23:15.817Z,6.75
2022-08-16T16:29:06.100Z,6.90
2022-08-16T16:33:50.265Z,6.10
2022-08-16T16:38:54.583Z,5.68
2022-08-16T16:44:01.671Z,7.30
2022-08-16T16:49:08.596Z,6.90
2022-08-16T16:54:22.515Z,7.50
2022-08-16T16:59:33.030Z,7.97
2022-08-16T17:04:36.514Z,8.18
2022-08-16T17:15:07.510Z,12.32
2022-08-16T17:20:13.416Z,11.82
2022-08-16T17:25:16.918Z,12.43
2022-08-16T17:30:29.529Z,10.43
2022-08-16T17:35:55.707Z,9.45
2022-08-16T17:39:26.070Z,20.70
2022-08-16T17:41:00.219Z,9.30
2022-08-16T17:46:07.594Z,9.48
2022-08-16T17:51:31.083Z,10.00
2022-08-16T17:56:34.781Z,9.77
2022-08-16T18:01:39.729Z,10.18
2022-08-16T18:06:43.694Z,10.43
2022-08-16T18:11:47.842Z,9.15
2022-08-16T18:16:54.682Z,9.85
2022-08-16T18:22:15.533Z,9.43
2022-08-16T18:27:25.385Z,9.82
2022-08-16T18:32:31.960Z,10.60
2022-08-16T18:37:35.937Z,9.95
2022-08-16T18:42:39.671Z,9.25
2022-08-16T18:47:44.505Z,8.70
2022-08-16T18:52:53.124Z,9.57
2022-08-16T18:57:56.688Z,9.50
2022-08-16T19:03:07.791Z,10.70
2022-08-16T19:08:15.830Z,9.80
2022-08-16T19:13:22.532Z,9.70
2022-08-16T19:18:28.034Z,10.57
2022-08-16T19:23:41.336Z,9.13
2022-08-16T19:28:50.504Z,9.00
2022-08-16T19:34:04.354Z,9.43
2022-08-16T19:39:11.170Z,9.07
2022-08-16T19:44:15.165Z,10.35
2022-08-16T19:49:20.421Z,9.95
2022-08-16T19:54:23.898Z,11.30
2022-08-16T19:59:39.421Z,9.63
2022-08-16T20:04:45.457Z,9.98
2022-08-16T20:09:49.873Z,9.65
2022-08-16T20:14:53.848Z,9.55
2022-08-16T20:19:58.739Z,9.50
2022-08-16T20:25:05.669Z,8.88
2022-08-16T20:30:11.779Z,9.20
2022-08-16T20:35:20.437Z,9.68
2022-08-16T20:40:34.342Z,9.52
2022-08-16T20:45:40.384Z,9.07
2022-08-16T20:50:45.656Z,9.35
2022-08-16T20:55:49.552Z,9.77
2022-08-16T21:00:53.379Z,9.15
2022-08-16T21:06:03.511Z,9.48
2022-08-16T21:11:14.433Z,9.75
2022-08-16T21:16:19.874Z,10.38
2022-08-16T21:21:33.434Z,10.18
2022-08-16T21:26:39.120Z,9.30
2022-08-16T21:31:43.724Z,10.18
2022-08-16T21:36:50.149Z,11.05
2022-08-16T21:41:54.605Z,11.05
2022-08-16T21:46:59.074Z,11.30
2022-08-16T21:52:06.368Z,10.05
2022-08-16T21:57:11.010Z,11.48
2022-08-16T22:02:18.393Z,12.27
2022-08-16T22:07:25.753Z,10.48
2022-08-16T22:12:29.894Z,10.50
2022-08-16T22:17:33.628Z,10.45
2022-08-16T22:22:42.283Z,9.95
2022-08-16T22:27:47.318Z,9.60
2022-08-16T22:32:50.882Z,9.57
2022-08-16T22:38:50.197Z,9.90
2022-08-16T22:43:20.562Z,9.93
2022-08-16T22:48:23.997Z,9.82
2022-08-16T22:53:28.920Z,10.18
2022-08-16T22:58:36.555Z,10.15
2022-08-16T23:03:41.023Z,10.63
2022-08-16T23:08:45.966Z,9.48
2022-08-16T23:13:53.636Z,8.82
2022-08-16T23:18:57.980Z,9.80
2022-08-16T23:24:03.748Z,9.35
2022-08-16T23:29:07.252Z,8.80
2022-08-16T23:34:26.976Z,9.98
2022-08-16T23:39:32.991Z,9.85
2022-08-16T23:44:55.191Z,10.55
2022-08-16T23:50:03.421Z,10.00
2022-08-16T23:55:10.444Z,9.98
